createdAt,value
2023-05-08T00:00:39.575Z,3684.00
2023-05-08T00:01:39.554Z,3691.00
2023-05-08T00:02:39.581Z,3685.00
2023-05-08T00:03:39.629Z,3685.00
2023-05-08T00:04:39.556Z,3680.00
2023-05-08T00:05:39.525Z,3669.00
2023-05-08T00:06:39.569Z,3681.00
2023-05-08T00:07:39.593Z,3648.00
2023-05-08T00:08:39.561Z,3649.00
2023-05-08T00:09:39.536Z,3654.00
2023-05-08T00:10:39.510Z,3658.00
2023-05-08T00:11:39.496Z,3668.00
2023-05-08T00:12:39.512Z,3663.00
2023-05-08T00:13:39.434Z,3677.00
2023-05-08T00:14:39.418Z,3665.00
2023-05-08T00:15:39.406Z,3674.00
2023-05-08T00:16:39.409Z,3675.00
2023-05-08T00:17:39.434Z,3667.00
2023-05-08T00:18:39.352Z,3656.00
2023-05-08T00:19:39.320Z,3650.00
2023-05-08T00:20:39.336Z,3645.00
2023-05-08T00:21:39.363Z,3656.00
2023-05-08T00:22:39.388Z,3662.00
2023-05-08T00:23:39.411Z,3652.00
2023-05-08T00:24:39.449Z,3645.00
2023-05-08T00:25:39.460Z,3642.00
2023-05-08T00:26:39.519Z,3634.00
2023-05-08T00:27:39.530Z,3640.00
2023-05-08T00:28:39.538Z,3628.00
2023-05-08T00:29:39.563Z,3633.00
2023-05-08T00:30:39.603Z,3636.00
2023-05-08T00:31:39.671Z,3632.00
2023-05-08T00:32:39.695Z,3638.00
2023-05-08T00:33:39.663Z,3623.00
2023-05-08T00:34:39.684Z,3614.00
2023-05-08T00:35:39.705Z,3619.00
2023-05-08T00:36:39.678Z,3620.00
2023-05-08T00:37:39.671Z,3622.00
2023-05-08T00:38:39.646Z,3624.00
2023-05-08T00:39:39.645Z,3621.00
2023-05-08T00:40:39.617Z,3616.00
2023-05-08T00:41:39.591Z,3610.00
2023-05-08T00:42:39.579Z,3599.00
2023-05-08T00:43:39.550Z,3605.00
2023-05-08T00:44:39.540Z,3611.00
2023-05-08T00:45:39.571Z,3597.00
2023-05-08T00:46:39.536Z,3598.00
2023-05-08T00:47:39.505Z,3601.00
2023-05-08T00:48:39.467Z,3602.00
2023-05-08T00:49:39.459Z,3608.00
2023-05-08T00:50:39.443Z,3612.00
2023-05-08T00:51:39.424Z,3609.00
2023-05-08T00:52:39.411Z,3610.00
2023-05-08T00:53:39.393Z,3592.00
2023-05-08T00:54:39.371Z,3602.00
2023-05-08T00:55:39.366Z,3597.00
2023-05-08T00:56:39.346Z,3594.00
2023-05-08T00:57:39.333Z,3588.00
2023-05-08T00:58:39.313Z,3606.00
2023-05-08T00:59:39.300Z,3589.00
2023-05-08T01:00:39.329Z,3589.00
2023-05-08T01:01:39.437Z,3577.00
2023-05-08T01:02:39.471Z,3570.00
2023-05-08T01:03:39.650Z,3579.00
2023-05-08T01:04:39.419Z,3573.00
2023-05-08T01:05:39.445Z,3582.00
2023-05-08T01:06:39.466Z,3582.00
2023-05-08T01:07:39.482Z,3581.00
2023-05-08T01:08:39.522Z,3569.00
2023-05-08T01:09:39.536Z,3561.00
2023-05-08T01:10:39.566Z,3555.00
2023-05-08T01:11:39.589Z,3561.00
2023-05-08T01:12:39.653Z,3551.00
2023-05-08T01:13:39.624Z,3557.00
2023-05-08T01:14:39.654Z,3559.00
2023-05-08T01:15:39.697Z,3552.00
2023-05-08T01:16:39.711Z,3533.00
2023-05-08T01:17:39.752Z,3541.00
2023-05-08T01:18:39.749Z,3543.00
2023-05-08T01:19:39.776Z,3537.00
2023-05-08T01:20:39.792Z,3545.00
2023-05-08T01:21:39.822Z,3545.00
2023-05-08T01:22:39.853Z,3537.00
2023-05-08T01:23:39.889Z,3529.00
2023-05-08T01:24:39.909Z,3519.00
2023-05-08T01:25:39.944Z,3525.00
2023-05-08T01:26:39.961Z,3524.00
2023-05-08T01:27:39.995Z,3523.00
2023-05-08T01:28:40.033Z,3516.00
2023-05-08T01:29:40.048Z,3516.00
2023-05-08T01:30:40.074Z,3520.00
2023-05-08T01:31:40.088Z,3515.00
2023-05-08T01:32:40.170Z,3508.00
2023-05-08T01:33:40.134Z,3509.00
2023-05-08T01:34:40.060Z,3510.00
2023-05-08T01:35:40.045Z,3509.00
2023-05-08T01:36:40.051Z,3511.00
2023-05-08T01:37:39.996Z,3511.00
2023-05-08T01:38:39.987Z,3514.00
2023-05-08T01:39:39.955Z,3517.00
2023-05-08T01:40:39.992Z,3508.00
2023-05-08T01:41:39.925Z,3502.00
2023-05-08T01:42:39.891Z,3510.00
2023-05-08T01:43:39.900Z,3499.00
2023-05-08T01:44:39.893Z,3499.00
2023-05-08T01:45:39.918Z,3501.00
2023-05-08T01:46:39.996Z,3492.00
2023-05-08T01:47:40.003Z,3489.00
2023-05-08T01:48:40.004Z,3483.00
2023-05-08T01:49:40.010Z,3481.00
2023-05-08T01:50:40.039Z,3481.00
2023-05-08T01:51:40.088Z,3485.00
2023-05-08T01:52:40.088Z,3477.00
2023-05-08T01:53:40.086Z,3478.00
2023-05-08T01:54:40.052Z,3479.00
2023-05-08T01:55:40.066Z,3484.00
2023-05-08T01:56:40.019Z,3479.00
2023-05-08T01:57:40.001Z,3486.00
2023-05-08T01:58:40.053Z,3469.00
2023-05-08T01:59:39.962Z,3473.00
2023-05-08T02:00:40.155Z,3475.00
2023-05-08T02:01:39.932Z,3477.00
2023-05-08T02:02:39.998Z,3460.00
2023-05-08T02:03:39.987Z,3461.00
2023-05-08T02:04:39.877Z,3464.00
2023-05-08T02:05:39.856Z,3465.00
2023-05-08T02:06:39.846Z,3475.00
2023-05-08T02:07:39.824Z,3462.00
2023-05-08T02:08:39.800Z,3464.00
2023-05-08T02:09:39.789Z,3471.00
2023-05-08T02:10:39.763Z,3470.00
2023-05-08T02:11:39.737Z,3483.00
2023-05-08T02:12:39.755Z,3470.00
2023-05-08T02:13:39.700Z,3468.00
2023-05-08T02:14:39.686Z,3462.00
2023-05-08T02:15:39.680Z,3452.00
2023-05-08T02:16:39.721Z,3451.00
2023-05-08T02:17:39.717Z,3463.00
2023-05-08T02:18:39.640Z,3448.00
2023-05-08T02:19:39.612Z,3449.00
2023-05-08T02:20:39.608Z,3453.00
2023-05-08T02:21:39.583Z,3455.00
2023-05-08T02:22:39.573Z,3454.00
2023-05-08T02:23:39.547Z,3454.00
2023-05-08T02:24:39.522Z,3469.00
2023-05-08T02:25:39.498Z,3439.00
2023-05-08T02:26:39.490Z,3438.00
2023-05-08T02:27:39.461Z,3457.00
2023-05-08T02:28:39.451Z,3435.00
2023-05-08T02:29:39.422Z,3440.00
2023-05-08T02:30:39.463Z,3418.00
2023-05-08T02:31:39.521Z,3431.00
2023-05-08T02:32:39.539Z,3433.00
2023-05-08T02:33:39.532Z,3437.00
2023-05-08T02:34:45.187Z,3437.00
2023-05-08T02:35:40.552Z,3438.00
2023-05-08T02:36:39.535Z,3438.00
2023-05-08T02:37:39.504Z,3429.00
2023-05-08T02:38:39.515Z,3432.00
2023-05-08T02:39:39.498Z,3438.00
2023-05-08T02:40:39.455Z,3439.00
2023-05-08T02:41:39.447Z,3441.00
2023-05-08T02:42:39.413Z,3438.00
2023-05-08T02:43:39.392Z,3443.00
2023-05-08T02:44:39.356Z,3434.00
2023-05-08T02:45:39.374Z,3410.00
2023-05-08T02:46:39.411Z,3418.00
2023-05-08T02:47:39.341Z,3430.00
2023-05-08T02:48:39.304Z,3421.00
2023-05-08T02:49:39.309Z,3407.00
2023-05-08T02:50:39.336Z,3412.00
2023-05-08T02:51:39.378Z,3406.00
2023-05-08T02:52:39.402Z,3408.00
2023-05-08T02:53:39.432Z,3408.00
2023-05-08T02:54:39.446Z,3409.00
2023-05-08T02:55:39.390Z,3411.00
2023-05-08T02:56:39.378Z,3410.00
2023-05-08T02:57:39.354Z,3412.00
2023-05-08T02:58:39.328Z,3402.00
2023-05-08T02:59:39.360Z,3403.00
2023-05-08T03:00:39.296Z,3398.00
2023-05-08T03:01:39.305Z,3386.00
2023-05-08T03:02:39.382Z,3312.00
2023-05-08T03:03:39.404Z,3207.00
2023-05-08T03:04:39.224Z,3066.00
2023-05-08T03:05:39.246Z,2952.00
2023-05-08T03:06:39.304Z,2853.00
2023-05-08T03:07:39.275Z,2745.00
2023-05-08T03:08:39.252Z,2614.00
2023-05-08T03:09:39.240Z,2471.00
2023-05-08T03:10:39.226Z,2339.00
2023-05-08T03:11:39.211Z,2181.00
2023-05-08T03:12:41.325Z,2048.00
2023-05-08T03:13:39.171Z,1914.00
2023-05-08T03:14:39.158Z,1759.00
2023-05-08T03:15:39.181Z,1668.00
2023-05-08T03:16:39.143Z,1554.00
2023-05-08T03:17:39.185Z,1400.00
2023-05-08T03:18:39.100Z,1316.00
2023-05-08T03:19:39.112Z,1201.00
2023-05-08T03:20:39.089Z,1096.00
2023-05-08T03:21:39.061Z,1010.00
2023-05-08T03:22:39.075Z,941.00
2023-05-08T03:23:39.032Z,855.00
2023-05-08T03:24:39.031Z,778.00
2023-05-08T03:25:39.002Z,688.00
2023-05-08T03:26:38.988Z,649.00
2023-05-08T03:27:38.971Z,639.00
2023-05-08T03:28:38.968Z,616.00
2023-05-08T03:29:38.949Z,595.00
2023-05-08T03:30:38.937Z,583.00
2023-05-08T03:31:39.005Z,567.00
2023-05-08T03:32:38.943Z,558.00
2023-05-08T03:33:38.913Z,551.00
2023-05-08T03:34:38.877Z,533.00
2023-05-08T03:35:38.872Z,540.00
2023-05-08T03:36:38.880Z,542.00
2023-05-08T03:37:38.917Z,539.00
2023-05-08T03:38:38.959Z,540.00
2023-05-08T03:39:38.985Z,539.00
2023-05-08T03:40:39.048Z,529.00
2023-05-08T03:41:39.031Z,521.00
2023-05-08T03:42:39.052Z,533.00
2023-05-08T03:43:39.123Z,535.00
2023-05-08T03:44:39.038Z,534.00
2023-05-08T03:45:39.017Z,533.00
2023-05-08T03:46:39.034Z,528.00
2023-05-08T03:47:39.095Z,529.00
2023-05-08T03:48:39.025Z,531.00
2023-05-08T03:49:39.026Z,529.00
2023-05-08T03:50:39.028Z,532.00
2023-05-08T03:51:39.011Z,538.00
2023-05-08T03:52:39.004Z,534.00
2023-05-08T03:53:39.000Z,530.00
2023-05-08T03:54:38.993Z,557.00
2023-05-08T03:55:39.001Z,562.00
2023-05-08T03:56:38.986Z,568.00
2023-05-08T03:57:38.989Z,569.00
2023-05-08T03:58:38.959Z,572.00
2023-05-08T03:59:39.002Z,575.00
2023-05-08T04:00:38.950Z,587.00
2023-05-08T04:01:38.963Z,596.00
2023-05-08T04:02:42.024Z,602.00
2023-05-08T04:03:38.980Z,608.00
2023-05-08T04:04:38.894Z,611.00
2023-05-08T04:05:38.883Z,604.00
2023-05-08T04:06:48.471Z,612.00
2023-05-08T04:07:39.851Z,612.00
2023-05-08T04:08:38.843Z,613.00
2023-05-08T04:09:38.830Z,613.00
2023-05-08T04:10:38.816Z,612.00
2023-05-08T04:11:38.808Z,617.00
2023-05-08T04:12:38.959Z,603.00
2023-05-08T04:13:38.802Z,605.00
2023-05-08T04:14:38.799Z,605.00
2023-05-08T04:15:38.787Z,603.00
2023-05-08T04:16:38.827Z,593.00
2023-05-08T04:17:38.784Z,596.00
2023-05-08T04:18:38.752Z,600.00
2023-05-08T04:19:38.736Z,600.00
2023-05-08T04:20:38.728Z,606.00
2023-05-08T04:22:57.574Z,500.00
2023-05-08T04:23:57.550Z,500.00
2023-05-08T04:24:57.578Z,500.00
2023-05-08T04:25:57.551Z,500.00
2023-05-08T04:26:57.566Z,500.00
2023-05-08T04:27:57.587Z,503.00
2023-05-08T04:28:57.580Z,507.00
2023-05-08T04:29:57.575Z,515.00
2023-05-08T04:30:57.700Z,516.00
2023-05-08T04:31:57.624Z,520.00
2023-05-08T04:32:57.624Z,531.00
2023-05-08T04:33:57.591Z,555.00
2023-05-08T04:34:57.604Z,586.00
2023-05-08T04:35:57.604Z,598.00
2023-05-08T04:36:57.618Z,608.00
2023-05-08T04:37:57.621Z,609.00
2023-05-08T04:38:59.075Z,612.00
2023-05-08T04:39:57.645Z,617.00
2023-05-08T04:40:57.744Z,617.00
2023-05-08T04:41:57.760Z,615.00
2023-05-08T04:42:57.827Z,617.00
2023-05-08T04:43:57.835Z,615.00
2023-05-08T04:44:57.844Z,603.00
2023-05-08T04:45:57.853Z,590.00
2023-05-08T04:46:57.864Z,589.00
2023-05-08T04:47:57.886Z,589.00
2023-05-08T04:48:57.870Z,589.00
2023-05-08T04:49:59.512Z,590.00
2023-05-08T04:50:57.876Z,582.00
2023-05-08T04:51:57.897Z,578.00
2023-05-08T04:52:57.893Z,570.00
2023-05-08T04:53:57.895Z,561.00
2023-05-08T04:54:57.897Z,555.00
2023-05-08T04:55:57.904Z,552.00
2023-05-08T04:56:57.895Z,552.00
2023-05-08T04:57:57.901Z,545.00
2023-05-08T04:58:57.916Z,548.00
2023-05-08T04:59:57.907Z,538.00
2023-05-08T05:00:57.907Z,542.00
2023-05-08T05:01:57.978Z,548.00
2023-05-08T05:02:57.948Z,541.00
2023-05-08T05:03:57.934Z,542.00
2023-05-08T05:04:57.949Z,536.00
2023-05-08T05:05:57.935Z,534.00
2023-05-08T05:06:57.936Z,530.00
2023-05-08T05:07:57.944Z,524.00
2023-05-08T05:08:57.947Z,511.00
2023-05-08T05:09:57.952Z,510.00
2023-05-08T05:10:57.953Z,500.00
2023-05-08T05:11:58.381Z,521.00
2023-05-08T05:12:58.028Z,537.00
2023-05-08T05:13:57.975Z,547.00
2023-05-08T05:14:57.978Z,549.00
2023-05-08T05:15:57.992Z,550.00
2023-05-08T05:16:57.976Z,553.00
2023-05-08T05:17:58.042Z,551.00
2023-05-08T05:18:58.000Z,559.00
2023-05-08T05:19:58.001Z,578.00
2023-05-08T05:20:57.994Z,610.00
2023-05-08T05:21:58.012Z,674.00
2023-05-08T05:22:57.994Z,724.00
2023-05-08T05:23:57.991Z,762.00
2023-05-08T05:24:57.994Z,812.00
2023-05-08T05:25:58.004Z,855.00
2023-05-08T05:26:58.008Z,911.00
2023-05-08T05:27:58.020Z,955.00
2023-05-08T05:28:58.065Z,987.00
2023-05-08T05:29:58.108Z,1044.00
2023-05-08T05:30:58.170Z,1105.00
2023-05-08T05:31:58.296Z,1206.00
2023-05-08T05:32:58.296Z,1277.00
2023-05-08T05:33:58.283Z,1143.00
2023-05-08T05:34:58.351Z,950.00
2023-05-08T05:35:58.414Z,760.00
2023-05-08T05:36:58.473Z,807.00
2023-05-08T05:37:58.690Z,624.00
2023-05-08T05:38:58.597Z,530.00
2023-05-08T05:39:58.633Z,524.00
2023-05-08T05:40:58.683Z,487.00
2023-05-08T05:41:58.755Z,520.00
2023-05-08T05:42:59.709Z,503.00
2023-05-08T05:43:58.744Z,410.00
2023-05-08T05:44:58.849Z,400.00
2023-05-08T05:45:58.894Z,400.00
2023-05-08T05:46:59.021Z,436.00
2023-05-08T05:47:59.226Z,498.00
2023-05-08T05:48:58.983Z,540.00
2023-05-08T05:49:59.069Z,528.00
2023-05-08T05:50:59.223Z,561.00
2023-05-08T05:51:59.167Z,552.00
2023-05-08T05:52:59.270Z,500.00
2023-05-08T05:53:59.376Z,524.00
2023-05-08T05:54:59.432Z,514.00
2023-05-08T05:55:59.470Z,497.00
2023-05-08T05:56:59.553Z,526.00
2023-05-08T05:57:59.586Z,606.00
2023-05-08T05:58:59.634Z,575.00
2023-05-08T05:59:59.676Z,556.00
2023-05-08T06:00:59.665Z,558.00
2023-05-08T06:01:59.735Z,584.00
2023-05-08T06:02:59.807Z,593.00
2023-05-08T06:03:59.785Z,631.00
2023-05-08T06:04:59.737Z,578.00
2023-05-08T06:05:59.926Z,588.00
2023-05-08T06:06:59.743Z,609.00
2023-05-08T06:07:59.743Z,612.00
2023-05-08T06:08:59.780Z,631.00
2023-05-08T06:09:59.779Z,764.00
2023-05-08T06:10:59.795Z,715.00
2023-05-08T06:11:59.785Z,733.00
2023-05-08T06:12:59.905Z,685.00
2023-05-08T06:13:59.801Z,720.00
2023-05-08T06:14:59.820Z,691.00
2023-05-08T06:15:59.899Z,637.00
2023-05-08T06:17:00.077Z,691.00
2023-05-08T06:18:00.139Z,685.00
2023-05-08T06:19:00.112Z,723.00
2023-05-08T06:20:00.112Z,658.00
2023-05-08T06:21:00.110Z,639.00
2023-05-08T06:22:00.127Z,651.00
2023-05-08T06:23:00.132Z,662.00
2023-05-08T06:24:00.110Z,661.00
2023-05-08T06:25:00.136Z,668.00
2023-05-08T06:26:00.245Z,725.00
2023-05-08T06:27:00.123Z,749.00
2023-05-08T06:28:00.118Z,694.00
2023-05-08T06:29:00.124Z,771.00
2023-05-08T06:30:00.196Z,760.00
2023-05-08T06:31:00.294Z,762.00
2023-05-08T06:32:00.123Z,772.00
2023-05-08T06:33:00.212Z,676.00
2023-05-08T06:34:00.157Z,663.00
2023-05-08T06:35:00.223Z,684.00
2023-05-08T06:36:00.165Z,706.00
2023-05-08T06:37:00.168Z,616.00
2023-05-08T06:38:00.207Z,583.00
2023-05-08T06:39:00.196Z,677.00
2023-05-08T06:40:11.692Z,651.00
2023-05-08T06:41:01.199Z,662.00
2023-05-08T06:42:00.216Z,590.00
2023-05-08T06:43:00.212Z,679.00
2023-05-08T06:44:00.225Z,709.00
2023-05-08T06:45:00.244Z,860.00
2023-05-08T06:46:00.263Z,1140.00
2023-05-08T06:47:00.227Z,1481.00
2023-05-08T06:48:00.294Z,1381.00
2023-05-08T06:49:00.311Z,1493.00
2023-05-08T06:50:00.219Z,1365.00
2023-05-08T06:51:00.219Z,1378.00
2023-05-08T06:52:00.229Z,1225.00
2023-05-08T06:53:00.229Z,1139.00
2023-05-08T06:54:00.225Z,1199.00
2023-05-08T06:55:00.275Z,1031.00
2023-05-08T06:56:00.221Z,1117.00
2023-05-08T06:57:00.221Z,1232.00
2023-05-08T06:58:00.229Z,1162.00
2023-05-08T06:59:07.768Z,1177.00
2023-05-08T07:00:01.238Z,1176.00
2023-05-08T07:01:00.238Z,977.00
2023-05-08T07:02:00.323Z,1056.00
2023-05-08T07:03:00.285Z,1128.00
2023-05-08T07:04:00.225Z,1045.00
2023-05-08T07:05:00.382Z,918.00
2023-05-08T07:06:00.213Z,897.00
2023-05-08T07:07:00.210Z,997.00
2023-05-08T07:08:00.215Z,1045.00
2023-05-08T07:09:00.222Z,855.00
2023-05-08T07:10:00.227Z,915.00
2023-05-08T07:11:00.193Z,1127.00
2023-05-08T07:12:00.197Z,1010.00
2023-05-08T07:13:00.229Z,1019.00
2023-05-08T07:14:00.194Z,1101.00
2023-05-08T07:15:03.491Z,1045.00
2023-05-08T07:16:01.230Z,1023.00
2023-05-08T07:17:00.200Z,966.00
2023-05-08T07:18:00.243Z,1024.00
2023-05-08T07:19:00.276Z,1141.00
2023-05-08T07:20:00.212Z,1411.00
2023-05-08T07:21:00.180Z,1515.00
2023-05-08T07:22:00.220Z,1605.00
2023-05-08T07:23:00.199Z,1746.00
2023-05-08T07:24:00.233Z,1881.00
2023-05-08T07:25:00.192Z,2046.00
2023-05-08T07:26:00.190Z,2165.00
2023-05-08T07:27:00.193Z,2162.00
2023-05-08T07:28:01.462Z,2192.00
2023-05-08T07:29:00.196Z,2388.00
2023-05-08T07:30:00.189Z,2511.00
2023-05-08T07:31:00.207Z,2514.00
2023-05-08T07:32:00.338Z,2534.00
2023-05-08T07:33:00.294Z,2592.00
2023-05-08T07:34:00.189Z,2521.00
2023-05-08T07:35:00.200Z,2522.00
2023-05-08T07:36:00.185Z,2550.00
2023-05-08T07:37:00.165Z,2569.00
2023-05-08T07:38:00.199Z,2645.00
2023-05-08T07:39:00.173Z,2757.00
2023-05-08T07:40:00.168Z,2775.00
2023-05-08T07:41:00.202Z,2823.00
2023-05-08T07:42:00.161Z,1940.00
2023-05-08T07:43:00.479Z,1527.00
2023-05-08T07:44:00.142Z,1264.00
2023-05-08T07:45:00.165Z,1229.00
2023-05-08T07:46:00.146Z,1175.00
2023-05-08T07:47:00.197Z,1229.00
2023-05-08T07:48:00.272Z,1230.00
2023-05-08T07:49:00.147Z,1229.00
2023-05-08T07:50:00.190Z,1145.00
2023-05-08T07:51:00.197Z,1085.00
2023-05-08T07:52:00.182Z,1018.00
2023-05-08T07:53:00.188Z,1086.00
2023-05-08T07:54:00.189Z,1141.00
2023-05-08T07:55:00.227Z,1266.00
2023-05-08T07:56:00.201Z,1362.00
2023-05-08T07:57:00.208Z,1475.00
2023-05-08T07:58:00.290Z,1550.00
2023-05-08T07:59:00.281Z,1587.00
2023-05-08T08:00:00.286Z,1618.00
2023-05-08T08:01:00.283Z,1662.00
2023-05-08T08:02:00.401Z,1620.00
2023-05-08T08:03:00.454Z,1588.00
2023-05-08T08:04:00.520Z,1438.00
2023-05-08T08:05:00.510Z,1492.00
2023-05-08T08:06:00.567Z,1416.00
2023-05-08T08:07:01.302Z,1545.00
2023-05-08T08:08:00.711Z,1711.00
2023-05-08T08:09:00.744Z,1971.00
2023-05-08T08:10:00.795Z,2213.00
2023-05-08T08:11:02.935Z,2385.00
2023-05-08T08:12:00.832Z,2522.00
2023-05-08T08:13:00.903Z,2625.00
2023-05-08T08:14:00.848Z,2701.00
2023-05-08T08:15:00.924Z,2777.00
2023-05-08T08:16:00.805Z,2864.00
2023-05-08T08:17:00.859Z,2956.00
2023-05-08T08:18:00.897Z,2995.00
2023-05-08T08:19:00.814Z,2999.00
2023-05-08T08:20:00.813Z,3015.00
2023-05-08T08:21:00.787Z,3035.00
2023-05-08T08:22:00.795Z,3064.00
2023-05-08T08:23:00.801Z,3057.00
2023-05-08T08:24:00.786Z,3001.00
2023-05-08T08:25:00.795Z,2984.00
2023-05-08T08:26:00.767Z,2952.00
2023-05-08T08:27:00.768Z,2877.00
2023-05-08T08:28:00.800Z,2841.00
2023-05-08T08:29:00.820Z,2882.00
2023-05-08T08:30:16.077Z,2827.00
2023-05-08T08:31:01.982Z,2828.00
2023-05-08T08:32:00.817Z,2839.00
2023-05-08T08:33:00.846Z,2865.00
2023-05-08T08:34:00.820Z,2829.00
2023-05-08T08:35:00.819Z,2770.00
2023-05-08T08:36:00.817Z,2678.00
2023-05-08T08:37:00.841Z,2625.00
2023-05-08T08:38:00.820Z,2581.00
2023-05-08T08:39:00.811Z,2542.00
2023-05-08T08:40:00.821Z,2494.00
2023-05-08T08:41:00.815Z,2427.00
2023-05-08T08:42:00.799Z,2408.00
2023-05-08T08:43:00.824Z,2310.00
2023-05-08T08:44:00.803Z,2271.00
2023-05-08T08:45:00.810Z,2193.00
2023-05-08T08:46:00.848Z,2142.00
2023-05-08T08:47:00.903Z,2138.00
2023-05-08T08:48:00.885Z,2119.00
2023-05-08T08:49:00.796Z,2110.00
2023-05-08T08:50:00.785Z,2094.00
2023-05-08T08:51:00.788Z,2053.00
2023-05-08T08:52:00.814Z,2095.00
2023-05-08T08:53:00.797Z,2139.00
2023-05-08T08:54:00.781Z,2221.00
2023-05-08T08:55:00.793Z,2340.00
2023-05-08T08:56:00.803Z,2328.00
2023-05-08T08:57:00.787Z,2220.00
2023-05-08T08:58:00.763Z,2203.00
2023-05-08T08:59:00.773Z,2224.00
2023-05-08T09:00:00.784Z,2168.00
2023-05-08T09:01:00.761Z,2152.00
2023-05-08T09:02:00.785Z,2097.00
2023-05-08T09:03:00.888Z,2065.00
2023-05-08T09:04:00.846Z,2121.00
2023-05-08T09:05:00.724Z,2191.00
2023-05-08T09:06:00.732Z,2161.00
2023-05-08T09:07:00.734Z,2070.00
2023-05-08T09:08:00.742Z,2012.00
2023-05-08T09:09:00.734Z,1979.00
2023-05-08T09:10:00.772Z,1999.00
2023-05-08T09:11:00.743Z,1875.00
2023-05-08T09:12:00.731Z,1851.00
2023-05-08T09:13:00.833Z,1704.00
2023-05-08T09:14:00.739Z,1655.00
2023-05-08T09:15:00.722Z,1561.00
2023-05-08T09:16:00.797Z,1644.00
2023-05-08T09:17:00.757Z,1657.00
2023-05-08T09:18:00.832Z,1636.00
2023-05-08T09:19:00.877Z,1561.00
2023-05-08T09:20:00.808Z,1488.00
2023-05-08T09:21:00.809Z,1495.00
2023-05-08T09:22:00.810Z,1447.00
2023-05-08T09:23:00.798Z,1496.00
2023-05-08T09:24:00.794Z,1497.00
2023-05-08T09:25:00.795Z,1509.00
2023-05-08T09:26:00.794Z,1545.00
2023-05-08T09:27:00.794Z,1637.00
2023-05-08T09:28:00.803Z,1941.00
2023-05-08T09:29:00.794Z,2179.00
2023-05-08T09:30:00.811Z,2327.00
2023-05-08T09:31:00.804Z,2493.00
2023-05-08T09:32:00.840Z,2655.00
2023-05-08T09:33:00.845Z,2660.00
2023-05-08T09:34:00.792Z,2694.00
2023-05-08T09:35:00.869Z,2790.00
2023-05-08T09:36:00.786Z,2943.00
2023-05-08T09:37:00.774Z,3188.00
2023-05-08T09:38:00.777Z,3289.00
2023-05-08T09:39:00.759Z,3378.00
2023-05-08T09:40:00.782Z,3464.00
2023-05-08T09:41:00.761Z,3523.00
2023-05-08T09:42:00.821Z,3581.00
2023-05-08T09:43:00.861Z,3620.00
2023-05-08T09:44:00.759Z,3546.00
2023-05-08T09:45:00.734Z,2844.00
2023-05-08T09:46:00.763Z,2279.00
2023-05-08T09:47:00.723Z,1827.00
2023-05-08T09:48:00.764Z,1629.00
2023-05-08T09:49:00.707Z,1420.00
2023-05-08T09:50:00.747Z,1267.00
2023-05-08T09:51:00.797Z,1258.00
2023-05-08T09:52:00.772Z,1439.00
2023-05-08T09:53:00.716Z,1558.00
2023-05-08T09:54:00.717Z,1837.00
2023-05-08T09:55:00.737Z,1766.00
2023-05-08T09:56:00.712Z,1784.00
2023-05-08T09:57:00.749Z,1985.00
2023-05-08T09:58:00.702Z,2005.00
2023-05-08T09:59:00.736Z,2167.00
2023-05-08T10:00:00.774Z,2348.00
2023-05-08T10:01:00.902Z,2521.00
2023-05-08T10:02:00.883Z,2692.00
2023-05-08T10:03:01.068Z,2774.00
2023-05-08T10:04:01.024Z,2631.00
2023-05-08T10:05:01.081Z,2793.00
2023-05-08T10:06:01.123Z,2754.00
2023-05-08T10:07:01.274Z,2473.00
2023-05-08T10:08:01.248Z,2413.00
2023-05-08T10:09:01.290Z,2585.00
2023-05-08T10:10:01.253Z,2411.00
2023-05-08T10:11:01.250Z,2595.00
2023-05-08T10:12:01.229Z,2680.00
2023-05-08T10:13:01.247Z,2553.00
2023-05-08T10:14:01.225Z,2668.00
2023-05-08T10:15:01.232Z,2552.00
2023-05-08T10:16:01.198Z,2741.00
2023-05-08T10:17:01.277Z,2867.00
2023-05-08T10:18:01.233Z,2798.00
2023-05-08T10:19:01.163Z,2767.00
2023-05-08T10:20:01.153Z,2648.00
2023-05-08T10:21:01.223Z,2944.00
2023-05-08T10:22:01.181Z,2947.00
2023-05-08T10:23:01.270Z,2965.00
2023-05-08T10:24:01.190Z,3021.00
2023-05-08T10:25:01.143Z,3116.00
2023-05-08T10:26:01.152Z,3229.00
2023-05-08T10:27:06.141Z,3253.00
2023-05-08T10:28:02.200Z,3256.00
2023-05-08T10:29:01.114Z,3270.00
2023-05-08T10:30:01.164Z,3308.00
2023-05-08T10:31:01.169Z,3330.00
2023-05-08T10:32:01.099Z,3390.00
2023-05-08T10:33:01.158Z,3429.00
2023-05-08T10:34:01.097Z,3458.00
2023-05-08T10:35:01.075Z,3446.00
2023-05-08T10:36:01.078Z,3390.00
2023-05-08T10:37:01.057Z,3088.00
2023-05-08T10:38:01.071Z,2781.00
2023-05-08T10:39:01.151Z,2849.00
2023-05-08T10:40:01.054Z,2900.00
2023-05-08T10:41:00.997Z,2911.00
2023-05-08T10:42:00.999Z,2885.00
2023-05-08T10:43:01.001Z,2557.00
2023-05-08T10:44:03.136Z,2055.00
2023-05-08T10:45:01.072Z,1607.00
2023-05-08T10:46:01.151Z,1462.00
2023-05-08T10:47:01.180Z,1270.00
2023-05-08T10:48:01.276Z,1076.00
2023-05-08T10:49:01.283Z,852.00
2023-05-08T10:50:01.347Z,875.00
2023-05-08T10:51:01.390Z,656.00
2023-05-08T10:52:01.419Z,862.00
2023-05-08T10:53:01.435Z,950.00
2023-05-08T10:54:01.485Z,1162.00
2023-05-08T10:55:01.540Z,1220.00
2023-05-08T10:56:01.604Z,1053.00
2023-05-08T10:57:01.663Z,900.00
2023-05-08T10:58:01.750Z,963.00
2023-05-08T10:59:01.775Z,954.00
2023-05-08T11:00:01.821Z,899.00
2023-05-08T11:01:01.888Z,1006.00
2023-05-08T11:02:01.949Z,922.00
2023-05-08T11:03:02.017Z,838.00
2023-05-08T11:04:02.111Z,945.00
2023-05-08T11:05:02.063Z,966.00
2023-05-08T11:06:02.210Z,792.00
2023-05-08T11:07:02.162Z,725.00
2023-05-08T11:08:02.240Z,803.00
2023-05-08T11:09:02.307Z,789.00
2023-05-08T11:10:02.342Z,750.00
2023-05-08T11:11:02.397Z,691.00
2023-05-08T11:12:02.448Z,884.00
2023-05-08T11:13:02.532Z,933.00
2023-05-08T11:14:02.557Z,975.00
2023-05-08T11:15:02.599Z,935.00
2023-05-08T11:16:02.637Z,833.00
2023-05-08T11:17:02.624Z,959.00
2023-05-08T11:18:02.621Z,1065.00
2023-05-08T11:19:02.588Z,1167.00
2023-05-08T11:20:02.592Z,1259.00
2023-05-08T11:21:02.593Z,1356.00
2023-05-08T11:22:02.600Z,1585.00
2023-05-08T11:23:02.556Z,1881.00
2023-05-08T11:24:02.563Z,2113.00
2023-05-08T11:25:02.532Z,2275.00
2023-05-08T11:26:02.530Z,2413.00
2023-05-08T11:27:02.520Z,2487.00
2023-05-08T11:28:02.534Z,2402.00
2023-05-08T11:29:02.565Z,2540.00
2023-05-08T11:30:02.569Z,2477.00
2023-05-08T11:31:02.597Z,2556.00
2023-05-08T11:32:02.658Z,2516.00
2023-05-08T11:33:02.647Z,2090.00
2023-05-08T11:34:02.669Z,2095.00
2023-05-08T11:35:02.646Z,2063.00
2023-05-08T11:36:02.673Z,2102.00
2023-05-08T11:37:02.683Z,2131.00
2023-05-08T11:38:02.721Z,2116.00
2023-05-08T11:39:02.732Z,2089.00
2023-05-08T11:40:02.756Z,2129.00
2023-05-08T11:41:02.768Z,2131.00
2023-05-08T11:42:02.730Z,2149.00
2023-05-08T11:43:02.722Z,2239.00
2023-05-08T11:44:02.707Z,2377.00
2023-05-08T11:45:02.720Z,2527.00
2023-05-08T11:46:02.687Z,2143.00
2023-05-08T11:47:02.753Z,2208.00
2023-05-08T11:48:02.692Z,2359.00
2023-05-08T11:49:02.678Z,2601.00
2023-05-08T11:50:02.682Z,2888.00
2023-05-08T11:51:02.670Z,2915.00
2023-05-08T11:52:02.654Z,2893.00
2023-05-08T11:53:02.631Z,2866.00
2023-05-08T11:54:02.616Z,2872.00
2023-05-08T11:55:02.606Z,2854.00
2023-05-08T11:56:02.586Z,2830.00
2023-05-08T11:57:02.583Z,2868.00
2023-05-08T11:58:02.572Z,2992.00
2023-05-08T11:59:02.557Z,3349.00
2023-05-08T12:00:02.571Z,3364.00
2023-05-08T12:01:02.548Z,3423.00
2023-05-08T12:02:08.553Z,3596.00
2023-05-08T12:03:03.546Z,3378.00
2023-05-08T12:04:02.702Z,3451.00
2023-05-08T12:05:02.573Z,3577.00
2023-05-08T12:06:02.461Z,3704.00
2023-05-08T12:07:02.445Z,3849.00
2023-05-08T12:08:02.437Z,3794.00
2023-05-08T12:09:02.421Z,3753.00
2023-05-08T12:10:02.435Z,3773.00
2023-05-08T12:11:02.405Z,3822.00
2023-05-08T12:12:02.406Z,3822.00
2023-05-08T12:13:02.464Z,3816.00
2023-05-08T12:14:02.371Z,3799.00